FTTD

Moundou Airport

Chad
METAR FTTD 151500Z 10006KT 7000 NSC 35/09 Q1009
Observed Flight Rules
Dec-15 @ 15:00 UTC (4 hours ago) Marginal Visual Flight Rules
Wind Visibility Clouds
100° at 6 knots 7,001 meters
  • Clear skies
Temperatures Readings
Current 35°C / 95°F
Dewpoint 9°C / 48°F
Humidity 20%
Altimeter 29.79" Hg
Pressure 1009 hPa
Elevation 422
METAR FTTD 151500Z 10006KT 7000 NSC 35/09 Q1009
Observed Flight Rules
Dec-15 @ 15:00 UTC
(4 hours ago)
MVFR
Wind Visibility
100° at 6 knots 7,001 meters
Clouds
  • Clear skies
Temperature Dewpoint
35°C / 95°F 9°C / 48°F
Humidity Altimeter Pressure
20% 29.79" Hg 1009 hPa